sensor_id;sensor_type;location;lat;lon;timestamp;temperature;humidity
12125;DHT22;6126;57.908;16.490;2022-11-03T00:01:50;8.00;99.90
12125;DHT22;6126;57.908;16.490;2022-11-03T00:04:17;7.70;99.90
12125;DHT22;6126;57.908;16.490;2022-11-03T00:06:47;7.90;99.90
12125;DHT22;6126;57.908;16.490;2022-11-03T00:09:18;7.70;99.90
12125;DHT22;6126;57.908;16.490;2022-11-03T00:11:46;7.80;99.90
12125;DHT22;6126;57.908;16.490;2022-11-03T00:14:13;8.00;99.90
12125;DHT22;6126;57.908;16.490;2022-11-03T00:16:39;7.70;99.90
12125;DHT22;6126;57.908;16.490;2022-11-03T00:19:07;7.90;99.90
12125;DHT22;6126;57.908;16.490;2022-11-03T00:21:34;7.90;99.90
12125;DHT22;6126;57.908;16.490;2022-11-03T00:24:00;7.80;99.90
12125;DHT22;6126;57.908;16.490;2022-11-03T00:26:31;7.80;99.90
12125;DHT22;6126;57.908;16.490;2022-11-03T00:29:05;8.00;99.90
12125;DHT22;6126;57.908;16.490;2022-11-03T00:31:43;7.60;99.90
12125;DHT22;6126;57.908;16.490;2022-11-03T00:34:10;7.70;99.90
12125;DHT22;6126;57.908;16.490;2022-11-03T00:36:40;7.80;99.90
12125;DHT22;6126;57.908;16.490;2022-11-03T00:39:07;7.90;99.90
12125;DHT22;6126;57.908;16.490;2022-11-03T00:41:34;7.90;99.90
12125;DHT22;6126;57.908;16.490;2022-11-03T00:44:00;7.80;99.90
12125;DHT22;6126;57.908;16.490;2022-11-03T00:46:26;8.00;99.90
12125;DHT22;6126;57.908;16.490;2022-11-03T00:48:53;7.70;99.90
12125;DHT22;6126;57.908;16.490;2022-11-03T00:53:58;7.70;99.90
12125;DHT22;6126;57.908;16.490;2022-11-03T00:56:30;7.80;99.90
12125;DHT22;6126;57.908;16.490;2022-11-03T00:59:04;7.70;99.90
12125;DHT22;6126;57.908;16.490;2022-11-03T01:01:37;7.80;99.90
12125;DHT22;6126;57.908;16.490;2022-11-03T01:04:05;7.90;99.90
12125;DHT22;6126;57.908;16.490;2022-11-03T01:06:52;7.50;99.90
12125;DHT22;6126;57.908;16.490;2022-11-03T01:09:33;7.60;99.90
12125;DHT22;6126;57.908;16.490;2022-11-03T01:14:42;7.80;99.90
12125;DHT22;6126;57.908;16.490;2022-11-03T01:17:11;7.60;99.90
12125;DHT22;6126;57.908;16.490;2022-11-03T01:19:41;7.60;99.90
12125;DHT22;6126;57.908;16.490;2022-11-03T01:22:07;7.50;99.90
12125;DHT22;6126;57.908;16.490;2022-11-03T01:24:34;7.40;99.90
12125;DHT22;6126;57.908;16.490;2022-11-03T01:27:00;7.60;99.90
12125;DHT22;6126;57.908;16.490;2022-11-03T01:29:26;7.50;99.90
12125;DHT22;6126;57.908;16.490;2022-11-03T01:31:52;7.60;99.90
12125;DHT22;6126;57.908;16.490;2022-11-03T01:34:19;7.60;99.90
12125;DHT22;6126;57.908;16.490;2022-11-03T01:36:46;7.40;99.90
12125;DHT22;6126;57.908;16.490;2022-11-03T01:39:14;7.40;99.90
12125;DHT22;6126;57.908;16.490;2022-11-03T01:41:43;7.50;99.90
12125;DHT22;6126;57.908;16.490;2022-11-03T01:46:45;7.60;99.90
12125;DHT22;6126;57.908;16.490;2022-11-03T01:52:03;7.70;99.90
12125;DHT22;6126;57.908;16.490;2022-11-03T01:54:30;7.40;99.90
12125;DHT22;6126;57.908;16.490;2022-11-03T01:56:58;7.50;99.90
12125;DHT22;6126;57.908;16.490;2022-11-03T01:59:26;7.50;99.90
12125;DHT22;6126;57.908;16.490;2022-11-03T02:01:53;7.40;99.90
12125;DHT22;6126;57.908;16.490;2022-11-03T02:04:26;7.40;99.90
12125;DHT22;6126;57.908;16.490;2022-11-03T02:07:31;7.20;99.90
12125;DHT22;6126;57.908;16.490;2022-11-03T02:10:00;7.60;99.90
12125;DHT22;6126;57.908;16.490;2022-11-03T02:12:27;7.40;99.90
12125;DHT22;6126;57.908;16.490;2022-11-03T02:15:02;7.40;99.90
12125;DHT22;6126;57.908;16.490;2022-11-03T02:17:32;7.30;99.90
12125;DHT22;6126;57.908;16.490;2022-11-03T02:20:00;7.40;99.90
12125;DHT22;6126;57.908;16.490;2022-11-03T02:28:12;7.20;99.90
12125;DHT22;6126;57.908;16.490;2022-11-03T02:31:01;7.30;99.90
12125;DHT22;6126;57.908;16.490;2022-11-03T02:39:12;7.30;99.90
12125;DHT22;6126;57.908;16.490;2022-11-03T02:41:45;7.40;99.90
12125;DHT22;6126;57.908;16.490;2022-11-03T02:44:15;7.40;99.90
12125;DHT22;6126;57.908;16.490;2022-11-03T02:46:45;7.10;99.90
12125;DHT22;6126;57.908;16.490;2022-11-03T02:49:15;7.30;99.90
12125;DHT22;6126;57.908;16.490;2022-11-03T02:51:41;7.20;99.90
12125;DHT22;6126;57.908;16.490;2022-11-03T02:54:21;7.30;99.90
12125;DHT22;6126;57.908;16.490;2022-11-03T02:57:14;7.10;99.90
12125;DHT22;6126;57.908;16.490;2022-11-03T02:59:55;7.10;99.90
12125;DHT22;6126;57.908;16.490;2022-11-03T03:02:36;7.10;99.90
12125;DHT22;6126;57.908;16.490;2022-11-03T03:05:08;7.10;99.90
12125;DHT22;6126;57.908;16.490;2022-11-03T03:07:40;7.10;99.90
12125;DHT22;6126;57.908;16.490;2022-11-03T03:10:15;7.00;99.90
12125;DHT22;6126;57.908;16.490;2022-11-03T03:12:50;7.20;99.90
12125;DHT22;6126;57.908;16.490;2022-11-03T03:15:26;7.00;99.90
12125;DHT22;6126;57.908;16.490;2022-11-03T03:21:03;7.30;99.90
12125;DHT22;6126;57.908;16.490;2022-11-03T03:23:40;7.30;99.90
12125;DHT22;6126;57.908;16.490;2022-11-03T03:26:28;7.20;99.90
12125;DHT22;6126;57.908;16.490;2022-11-03T03:29:08;7.20;99.90
12125;DHT22;6126;57.908;16.490;2022-11-03T03:31:43;7.00;99.90
12125;DHT22;6126;57.908;16.490;2022-11-03T03:34:16;7.20;99.90
12125;DHT22;6126;57.908;16.490;2022-11-03T03:36:45;7.20;99.90
12125;DHT22;6126;57.908;16.490;2022-11-03T03:39:14;7.30;99.90
12125;DHT22;6126;57.908;16.490;2022-11-03T03:41:45;7.20;99.90
12125;DHT22;6126;57.908;16.490;2022-11-03T03:44:13;7.00;99.90
12125;DHT22;6126;57.908;16.490;2022-11-03T03:46:46;7.20;99.90
12125;DHT22;6126;57.908;16.490;2022-11-03T03:49:16;7.20;99.90
12125;DHT22;6126;57.908;16.490;2022-11-03T03:51:42;7.00;99.90
12125;DHT22;6126;57.908;16.490;2022-11-03T03:54:10;7.10;99.90
12125;DHT22;6126;57.908;16.490;2022-11-03T03:56:45;7.10;99.90
12125;DHT22;6126;57.908;16.490;2022-11-03T03:59:18;7.10;99.90
12125;DHT22;6126;57.908;16.490;2022-11-03T04:01:43;7.20;99.90
12125;DHT22;6126;57.908;16.490;2022-11-03T04:04:09;6.70;99.90
12125;DHT22;6126;57.908;16.490;2022-11-03T04:06:35;6.90;99.90
12125;DHT22;6126;57.908;16.490;2022-11-03T04:09:01;6.90;99.90
12125;DHT22;6126;57.908;16.490;2022-11-03T04:11:27;6.80;99.90
12125;DHT22;6126;57.908;16.490;2022-11-03T04:14:11;6.90;99.90
12125;DHT22;6126;57.908;16.490;2022-11-03T04:16:56;6.90;99.90
12125;DHT22;6126;57.908;16.490;2022-11-03T04:19:40;6.70;99.90
12125;DHT22;6126;57.908;16.490;2022-11-03T04:22:30;6.80;99.90
12125;DHT22;6126;57.908;16.490;2022-11-03T04:24:58;6.80;99.90
12125;DHT22;6126;57.908;16.490;2022-11-03T04:27:34;6.60;99.90
12125;DHT22;6126;57.908;16.490;2022-11-03T04:32:40;6.60;99.90
12125;DHT22;6126;57.908;16.490;2022-11-03T04:35:32;6.60;99.90
12125;DHT22;6126;57.908;16.490;2022-11-03T04:38:02;6.60;99.90
12125;DHT22;6126;57.908;16.490;2022-11-03T04:40:45;6.30;99.90
12125;DHT22;6126;57.908;16.490;2022-11-03T04:43:20;6.50;99.90
12125;DHT22;6126;57.908;16.490;2022-11-03T04:45:48;6.10;99.90
12125;DHT22;6126;57.908;16.490;2022-11-03T04:48:18;6.00;99.90
12125;DHT22;6126;57.908;16.490;2022-11-03T04:50:48;6.10;99.90
12125;DHT22;6126;57.908;16.490;2022-11-03T04:53:19;6.00;99.90
12125;DHT22;6126;57.908;16.490;2022-11-03T04:55:48;5.50;99.90
12125;DHT22;6126;57.908;16.490;2022-11-03T05:00:51;5.40;99.90
12125;DHT22;6126;57.908;16.490;2022-11-03T05:03:24;5.40;99.90
12125;DHT22;6126;57.908;16.490;2022-11-03T05:05:51;5.50;99.90
12125;DHT22;6126;57.908;16.490;2022-11-03T05:08:18;5.20;99.90
12125;DHT22;6126;57.908;16.490;2022-11-03T05:10:46;5.30;99.90
12125;DHT22;6126;57.908;16.490;2022-11-03T05:13:22;5.30;99.90
12125;DHT22;6126;57.908;16.490;2022-11-03T05:15:51;5.70;99.90
12125;DHT22;6126;57.908;16.490;2022-11-03T05:18:29;5.60;99.90
12125;DHT22;6126;57.908;16.490;2022-11-03T05:20:59;5.40;99.90
12125;DHT22;6126;57.908;16.490;2022-11-03T05:23:29;5.30;99.90
12125;DHT22;6126;57.908;16.490;2022-11-03T05:26:02;5.30;99.90
12125;DHT22;6126;57.908;16.490;2022-11-03T05:28:34;5.20;99.90
12125;DHT22;6126;57.908;16.490;2022-11-03T05:31:23;5.50;99.90
12125;DHT22;6126;57.908;16.490;2022-11-03T05:33:55;5.40;99.90
12125;DHT22;6126;57.908;16.490;2022-11-03T05:36:24;5.40;99.90
12125;DHT22;6126;57.908;16.490;2022-11-03T05:38:55;5.50;99.90
12125;DHT22;6126;57.908;16.490;2022-11-03T05:41:26;5.40;99.90
12125;DHT22;6126;57.908;16.490;2022-11-03T05:44:20;5.70;99.90
12125;DHT22;6126;57.908;16.490;2022-11-03T05:46:51;5.50;99.90
12125;DHT22;6126;57.908;16.490;2022-11-03T05:49:17;5.60;99.90
12125;DHT22;6126;57.908;16.490;2022-11-03T05:51:44;5.60;99.90
12125;DHT22;6126;57.908;16.490;2022-11-03T05:54:22;5.90;99.90
12125;DHT22;6126;57.908;16.490;2022-11-03T05:56:52;5.70;99.90
12125;DHT22;6126;57.908;16.490;2022-11-03T05:59:22;5.70;99.90
12125;DHT22;6126;57.908;16.490;2022-11-03T06:01:51;5.50;99.90
12125;DHT22;6126;57.908;16.490;2022-11-03T06:04:27;5.80;99.90
12125;DHT22;6126;57.908;16.490;2022-11-03T06:07:03;5.80;99.90
12125;DHT22;6126;57.908;16.490;2022-11-03T06:09:36;5.80;99.90
12125;DHT22;6126;57.908;16.490;2022-11-03T06:12:04;5.80;99.90
12125;DHT22;6126;57.908;16.490;2022-11-03T06:14:32;6.00;99.90
12125;DHT22;6126;57.908;16.490;2022-11-03T06:17:21;6.20;99.90
12125;DHT22;6126;57.908;16.490;2022-11-03T06:19:53;6.00;99.90
12125;DHT22;6126;57.908;16.490;2022-11-03T06:22:38;5.90;99.90
12125;DHT22;6126;57.908;16.490;2022-11-03T06:25:35;6.10;99.90
12125;DHT22;6126;57.908;16.490;2022-11-03T06:28:02;6.10;99.90
12125;DHT22;6126;57.908;16.490;2022-11-03T06:30:32;6.10;99.90
12125;DHT22;6126;57.908;16.490;2022-11-03T06:33:11;6.10;99.90
12125;DHT22;6126;57.908;16.490;2022-11-03T06:35:41;6.40;99.90
12125;DHT22;6126;57.908;16.490;2022-11-03T06:38:21;5.90;99.90
12125;DHT22;6126;57.908;16.490;2022-11-03T06:40:50;6.40;99.90
12125;DHT22;6126;57.908;16.490;2022-11-03T06:43:39;6.10;99.90
12125;DHT22;6126;57.908;16.490;2022-11-03T06:46:17;6.30;99.90
12125;DHT22;6126;57.908;16.490;2022-11-03T06:48:46;6.50;99.90
12125;DHT22;6126;57.908;16.490;2022-11-03T06:51:23;6.50;99.90
12125;DHT22;6126;57.908;16.490;2022-11-03T06:53:56;6.30;99.90
12125;DHT22;6126;57.908;16.490;2022-11-03T06:56:27;6.30;99.90
12125;DHT22;6126;57.908;16.490;2022-11-03T06:58:56;6.10;99.90
12125;DHT22;6126;57.908;16.490;2022-11-03T07:01:31;6.40;99.90
12125;DHT22;6126;57.908;16.490;2022-11-03T07:04:18;6.40;99.90
12125;DHT22;6126;57.908;16.490;2022-11-03T07:06:47;6.40;99.90
12125;DHT22;6126;57.908;16.490;2022-11-03T07:09:19;6.50;99.90
12125;DHT22;6126;57.908;16.490;2022-11-03T07:11:52;6.60;99.90
12125;DHT22;6126;57.908;16.490;2022-11-03T07:14:23;6.40;99.90
12125;DHT22;6126;57.908;16.490;2022-11-03T07:16:55;6.50;99.90
12125;DHT22;6126;57.908;16.490;2022-11-03T07:19:26;6.60;99.90
12125;DHT22;6126;57.908;16.490;2022-11-03T07:22:00;6.50;99.90
12125;DHT22;6126;57.908;16.490;2022-11-03T07:24:39;6.80;99.90
12125;DHT22;6126;57.908;16.490;2022-11-03T07:27:29;6.80;99.90
12125;DHT22;6126;57.908;16.490;2022-11-03T07:30:19;6.70;99.90
12125;DHT22;6126;57.908;16.490;2022-11-03T07:32:50;6.70;99.90
12125;DHT22;6126;57.908;16.490;2022-11-03T07:37:49;7.00;99.90
12125;DHT22;6126;57.908;16.490;2022-11-03T07:40:26;6.90;99.90
12125;DHT22;6126;57.908;16.490;2022-11-03T07:42:57;7.00;99.90
12125;DHT22;6126;57.908;16.490;2022-11-03T07:49:23;7.20;99.90
12125;DHT22;6126;57.908;16.490;2022-11-03T07:51:40;7.40;99.90
12125;DHT22;6126;57.908;16.490;2022-11-03T07:54:14;7.60;99.90
12125;DHT22;6126;57.908;16.490;2022-11-03T07:56:52;7.40;99.90
12125;DHT22;6126;57.908;16.490;2022-11-03T07:59:39;7.60;99.90
12125;DHT22;6126;57.908;16.490;2022-11-03T08:02:24;7.60;99.90
12125;DHT22;6126;57.908;16.490;2022-11-03T08:04:50;7.70;99.90
12125;DHT22;6126;57.908;16.490;2022-11-03T08:07:16;7.60;99.90
12125;DHT22;6126;57.908;16.490;2022-11-03T08:09:42;7.60;99.90
12125;DHT22;6126;57.908;16.490;2022-11-03T08:12:08;7.60;99.90
12125;DHT22;6126;57.908;16.490;2022-11-03T08:14:34;7.70;99.90
12125;DHT22;6126;57.908;16.490;2022-11-03T08:17:02;7.70;99.90
12125;DHT22;6126;57.908;16.490;2022-11-03T08:19:28;7.70;99.90
12125;DHT22;6126;57.908;16.490;2022-11-03T08:21:55;7.90;99.90
12125;DHT22;6126;57.908;16.490;2022-11-03T08:24:21;7.80;99.90
12125;DHT22;6126;57.908;16.490;2022-11-03T08:26:47;7.90;99.90
12125;DHT22;6126;57.908;16.490;2022-11-03T08:29:13;7.90;99.90
12125;DHT22;6126;57.908;16.490;2022-11-03T08:31:39;7.90;99.90
12125;DHT22;6126;57.908;16.490;2022-11-03T08:34:05;7.80;99.90
12125;DHT22;6126;57.908;16.490;2022-11-03T08:36:31;7.90;99.90
12125;DHT22;6126;57.908;16.490;2022-11-03T08:38:56;8.00;99.90
12125;DHT22;6126;57.908;16.490;2022-11-03T08:41:22;7.80;99.90
12125;DHT22;6126;57.908;16.490;2022-11-03T08:43:48;8.10;99.90
12125;DHT22;6126;57.908;16.490;2022-11-03T08:46:14;8.10;99.90
12125;DHT22;6126;57.908;16.490;2022-11-03T08:48:40;7.90;99.90
12125;DHT22;6126;57.908;16.490;2022-11-03T08:51:06;8.00;99.90
12125;DHT22;6126;57.908;16.490;2022-11-03T08:53:34;7.90;99.90
12125;DHT22;6126;57.908;16.490;2022-11-03T08:56:00;7.90;99.90
12125;DHT22;6126;57.908;16.490;2022-11-03T08:58:26;8.10;99.90
12125;DHT22;6126;57.908;16.490;2022-11-03T09:00:52;8.20;99.90
12125;DHT22;6126;57.908;16.490;2022-11-03T09:03:18;7.90;99.90
12125;DHT22;6126;57.908;16.490;2022-11-03T09:05:44;7.90;99.90
12125;DHT22;6126;57.908;16.490;2022-11-03T09:08:09;8.00;99.90
12125;DHT22;6126;57.908;16.490;2022-11-03T09:10:35;7.80;99.90
12125;DHT22;6126;57.908;16.490;2022-11-03T09:13:01;8.20;99.90
12125;DHT22;6126;57.908;16.490;2022-11-03T09:15:27;8.20;99.90
12125;DHT22;6126;57.908;16.490;2022-11-03T09:17:53;8.10;99.90
12125;DHT22;6126;57.908;16.490;2022-11-03T09:20:19;8.10;99.90
12125;DHT22;6126;57.908;16.490;2022-11-03T09:22:45;8.20;99.90
12125;DHT22;6126;57.908;16.490;2022-11-03T09:25:11;8.00;99.90
12125;DHT22;6126;57.908;16.490;2022-11-03T09:27:37;8.30;99.90
12125;DHT22;6126;57.908;16.490;2022-11-03T09:30:04;8.30;99.90
12125;DHT22;6126;57.908;16.490;2022-11-03T09:32:31;8.10;99.90
12125;DHT22;6126;57.908;16.490;2022-11-03T09:34:58;8.30;99.90
12125;DHT22;6126;57.908;16.490;2022-11-03T09:37:24;8.30;99.90
12125;DHT22;6126;57.908;16.490;2022-11-03T09:39:50;8.10;99.90
12125;DHT22;6126;57.908;16.490;2022-11-03T09:42:16;8.40;99.90
12125;DHT22;6126;57.908;16.490;2022-11-03T09:44:43;8.40;99.90
12125;DHT22;6126;57.908;16.490;2022-11-03T09:47:25;8.00;99.90
12125;DHT22;6126;57.908;16.490;2022-11-03T09:49:54;8.10;99.90
12125;DHT22;6126;57.908;16.490;2022-11-03T09:52:22;8.30;99.90
12125;DHT22;6126;57.908;16.490;2022-11-03T09:54:51;8.20;99.90
12125;DHT22;6126;57.908;16.490;2022-11-03T09:57:20;8.10;99.90
12125;DHT22;6126;57.908;16.490;2022-11-03T09:59:48;8.20;99.90
12125;DHT22;6126;57.908;16.490;2022-11-03T10:02:27;8.40;99.90
12125;DHT22;6126;57.908;16.490;2022-11-03T10:04:59;8.50;99.90
12125;DHT22;6126;57.908;16.490;2022-11-03T10:07:28;8.40;99.90
12125;DHT22;6126;57.908;16.490;2022-11-03T10:09:57;8.40;99.90
12125;DHT22;6126;57.908;16.490;2022-11-03T10:12:25;8.30;99.90
12125;DHT22;6126;57.908;16.490;2022-11-03T10:15:01;8.40;99.90
12125;DHT22;6126;57.908;16.490;2022-11-03T10:17:29;8.40;99.90
12125;DHT22;6126;57.908;16.490;2022-11-03T10:19:57;8.50;99.90
12125;DHT22;6126;57.908;16.490;2022-11-03T10:22:23;8.70;99.90
12125;DHT22;6126;57.908;16.490;2022-11-03T10:28:16;8.40;99.90
12125;DHT22;6126;57.908;16.490;2022-11-03T10:30:54;8.60;99.90
12125;DHT22;6126;57.908;16.490;2022-11-03T10:36:06;9.00;99.90
12125;DHT22;6126;57.908;16.490;2022-11-03T10:38:47;8.60;99.90
12125;DHT22;6126;57.908;16.490;2022-11-03T10:41:21;8.80;99.90
12125;DHT22;6126;57.908;16.490;2022-11-03T10:46:36;9.00;99.90
12125;DHT22;6126;57.908;16.490;2022-11-03T10:49:10;9.10;99.90
12125;DHT22;6126;57.908;16.490;2022-11-03T10:51:46;8.90;99.90
12125;DHT22;6126;57.908;16.490;2022-11-03T10:54:15;9.20;99.90
12125;DHT22;6126;57.908;16.490;2022-11-03T10:56:44;9.10;99.90
12125;DHT22;6126;57.908;16.490;2022-11-03T10:59:25;9.30;99.90
12125;DHT22;6126;57.908;16.490;2022-11-03T11:01:57;9.30;99.90
12125;DHT22;6126;57.908;16.490;2022-11-03T11:04:24;9.10;99.90
12125;DHT22;6126;57.908;16.490;2022-11-03T11:06:50;9.40;99.90
12125;DHT22;6126;57.908;16.490;2022-11-03T11:09:22;9.60;99.90
12125;DHT22;6126;57.908;16.490;2022-11-03T11:12:15;9.60;99.90
12125;DHT22;6126;57.908;16.490;2022-11-03T11:14:57;9.60;99.90
12125;DHT22;6126;57.908;16.490;2022-11-03T11:20:30;9.50;99.90
12125;DHT22;6126;57.908;16.490;2022-11-03T11:31:33;9.60;99.90
12125;DHT22;6126;57.908;16.490;2022-11-03T11:36:37;9.70;99.90
12125;DHT22;6126;57.908;16.490;2022-11-03T11:42:05;9.80;99.90
12125;DHT22;6126;57.908;16.490;2022-11-03T11:47:28;10.00;99.90
12125;DHT22;6126;57.908;16.490;2022-11-03T11:52:55;10.00;99.90
12125;DHT22;6126;57.908;16.490;2022-11-03T11:55:30;10.10;99.90
12125;DHT22;6126;57.908;16.490;2022-11-03T11:58:05;10.10;99.90
12125;DHT22;6126;57.908;16.490;2022-11-03T12:00:53;10.00;99.90
12125;DHT22;6126;57.908;16.490;2022-11-03T12:03:34;10.00;99.90
12125;DHT22;6126;57.908;16.490;2022-11-03T12:06:03;10.30;99.90
12125;DHT22;6126;57.908;16.490;2022-11-03T12:08:30;10.40;99.90
12125;DHT22;6126;57.908;16.490;2022-11-03T12:11:01;10.20;99.90
12125;DHT22;6126;57.908;16.490;2022-11-03T12:16:37;10.20;99.90
12125;DHT22;6126;57.908;16.490;2022-11-03T12:19:38;10.40;99.90
12125;DHT22;6126;57.908;16.490;2022-11-03T12:22:19;10.40;99.90
12125;DHT22;6126;57.908;16.490;2022-11-03T12:25:05;10.40;99.90
12125;DHT22;6126;57.908;16.490;2022-11-03T12:27:51;10.40;99.90
12125;DHT22;6126;57.908;16.490;2022-11-03T12:30:18;10.20;99.90
12125;DHT22;6126;57.908;16.490;2022-11-03T12:32:45;10.40;99.90
12125;DHT22;6126;57.908;16.490;2022-11-03T12:35:11;10.40;99.90
12125;DHT22;6126;57.908;16.490;2022-11-03T12:37:38;10.30;99.90
12125;DHT22;6126;57.908;16.490;2022-11-03T12:40:06;10.30;99.90
12125;DHT22;6126;57.908;16.490;2022-11-03T12:42:32;10.50;99.90
12125;DHT22;6126;57.908;16.490;2022-11-03T12:44:58;10.60;99.90
12125;DHT22;6126;57.908;16.490;2022-11-03T12:47:24;10.40;99.90
12125;DHT22;6126;57.908;16.490;2022-11-03T12:49:49;10.50;99.90
12125;DHT22;6126;57.908;16.490;2022-11-03T12:52:15;10.30;99.90
12125;DHT22;6126;57.908;16.490;2022-11-03T12:54:41;10.60;99.90
12125;DHT22;6126;57.908;16.490;2022-11-03T12:57:07;10.30;99.90
12125;DHT22;6126;57.908;16.490;2022-11-03T12:59:33;10.40;99.90
12125;DHT22;6126;57.908;16.490;2022-11-03T13:01:59;10.20;99.90
12125;DHT22;6126;57.908;16.490;2022-11-03T13:04:25;10.40;99.90
12125;DHT22;6126;57.908;16.490;2022-11-03T13:06:50;10.40;99.90
12125;DHT22;6126;57.908;16.490;2022-11-03T13:09:16;10.50;99.90
12125;DHT22;6126;57.908;16.490;2022-11-03T13:11:42;10.20;99.90
12125;DHT22;6126;57.908;16.490;2022-11-03T13:14:26;10.50;99.90
12125;DHT22;6126;57.908;16.490;2022-11-03T13:16:52;10.40;99.90
12125;DHT22;6126;57.908;16.490;2022-11-03T13:19:18;10.20;99.90
12125;DHT22;6126;57.908;16.490;2022-11-03T13:21:44;10.30;99.90
12125;DHT22;6126;57.908;16.490;2022-11-03T13:24:09;10.30;99.90
12125;DHT22;6126;57.908;16.490;2022-11-03T13:26:35;10.50;99.90
12125;DHT22;6126;57.908;16.490;2022-11-03T13:29:01;10.10;99.90
12125;DHT22;6126;57.908;16.490;2022-11-03T13:31:27;10.20;99.90
12125;DHT22;6126;57.908;16.490;2022-11-03T13:33:53;10.10;99.90
12125;DHT22;6126;57.908;16.490;2022-11-03T13:36:18;10.20;99.90
12125;DHT22;6126;57.908;16.490;2022-11-03T13:38:44;10.40;99.90
12125;DHT22;6126;57.908;16.490;2022-11-03T13:41:10;10.30;99.90
12125;DHT22;6126;57.908;16.490;2022-11-03T13:43:36;10.30;99.90
12125;DHT22;6126;57.908;16.490;2022-11-03T13:46:02;10.20;99.90
12125;DHT22;6126;57.908;16.490;2022-11-03T13:48:29;10.10;99.90
12125;DHT22;6126;57.908;16.490;2022-11-03T13:50:55;10.00;99.90
12125;DHT22;6126;57.908;16.490;2022-11-03T13:53:21;10.10;99.90
12125;DHT22;6126;57.908;16.490;2022-11-03T13:55:48;10.10;99.90
12125;DHT22;6126;57.908;16.490;2022-11-03T13:58:13;10.20;99.90
12125;DHT22;6126;57.908;16.490;2022-11-03T14:00:39;10.20;99.90
12125;DHT22;6126;57.908;16.490;2022-11-03T14:03:05;10.20;99.90
12125;DHT22;6126;57.908;16.490;2022-11-03T14:05:31;10.20;99.90
12125;DHT22;6126;57.908;16.490;2022-11-03T14:07:57;10.20;99.90
12125;DHT22;6126;57.908;16.490;2022-11-03T14:10:22;10.00;99.90
12125;DHT22;6126;57.908;16.490;2022-11-03T14:12:48;10.20;99.90
12125;DHT22;6126;57.908;16.490;2022-11-03T14:15:14;10.20;99.90
12125;DHT22;6126;57.908;16.490;2022-11-03T14:17:40;10.10;99.90
12125;DHT22;6126;57.908;16.490;2022-11-03T14:20:08;10.20;99.90
12125;DHT22;6126;57.908;16.490;2022-11-03T14:22:36;10.30;99.90
12125;DHT22;6126;57.908;16.490;2022-11-03T14:25:03;10.00;99.90
12125;DHT22;6126;57.908;16.490;2022-11-03T14:27:29;10.20;99.90
12125;DHT22;6126;57.908;16.490;2022-11-03T14:29:55;10.00;99.90
12125;DHT22;6126;57.908;16.490;2022-11-03T14:32:21;10.40;99.90
12125;DHT22;6126;57.908;16.490;2022-11-03T14:34:47;10.10;99.90
12125;DHT22;6126;57.908;16.490;2022-11-03T14:37:14;10.30;99.90
12125;DHT22;6126;57.908;16.490;2022-11-03T14:39:40;10.10;99.90
12125;DHT22;6126;57.908;16.490;2022-11-03T14:42:09;10.30;99.90
12125;DHT22;6126;57.908;16.490;2022-11-03T14:44:41;10.10;99.90
12125;DHT22;6126;57.908;16.490;2022-11-03T14:47:10;10.00;99.90
12125;DHT22;6126;57.908;16.490;2022-11-03T14:49:43;10.10;99.90
12125;DHT22;6126;57.908;16.490;2022-11-03T14:52:10;10.00;99.90
12125;DHT22;6126;57.908;16.490;2022-11-03T14:54:36;10.00;99.90
12125;DHT22;6126;57.908;16.490;2022-11-03T14:57:03;10.20;99.90
12125;DHT22;6126;57.908;16.490;2022-11-03T14:59:29;10.30;99.90
12125;DHT22;6126;57.908;16.490;2022-11-03T15:01:55;10.10;99.90
12125;DHT22;6126;57.908;16.490;2022-11-03T15:04:22;9.90;99.90
12125;DHT22;6126;57.908;16.490;2022-11-03T15:06:48;10.10;99.90
12125;DHT22;6126;57.908;16.490;2022-11-03T15:09:14;9.90;99.90
12125;DHT22;6126;57.908;16.490;2022-11-03T15:11:41;9.90;99.90
12125;DHT22;6126;57.908;16.490;2022-11-03T15:14:08;9.90;99.90
12125;DHT22;6126;57.908;16.490;2022-11-03T15:16:34;10.10;99.90
12125;DHT22;6126;57.908;16.490;2022-11-03T15:19:01;9.90;99.90
12125;DHT22;6126;57.908;16.490;2022-11-03T15:21:29;9.80;99.90
12125;DHT22;6126;57.908;16.490;2022-11-03T15:23:55;9.90;99.90
12125;DHT22;6126;57.908;16.490;2022-11-03T15:26:21;10.00;99.90
12125;DHT22;6126;57.908;16.490;2022-11-03T15:28:47;10.00;99.90
12125;DHT22;6126;57.908;16.490;2022-11-03T15:31:12;9.90;99.90
12125;DHT22;6126;57.908;16.490;2022-11-03T15:33:38;10.20;99.90
12125;DHT22;6126;57.908;16.490;2022-11-03T15:36:05;9.90;99.90
12125;DHT22;6126;57.908;16.490;2022-11-03T15:38:32;10.00;99.90
12125;DHT22;6126;57.908;16.490;2022-11-03T15:40:58;9.90;99.90
12125;DHT22;6126;57.908;16.490;2022-11-03T15:43:44;10.00;99.90
12125;DHT22;6126;57.908;16.490;2022-11-03T15:46:12;9.90;99.90
12125;DHT22;6126;57.908;16.490;2022-11-03T15:48:38;10.00;99.90
12125;DHT22;6126;57.908;16.490;2022-11-03T15:51:04;9.90;99.90
12125;DHT22;6126;57.908;16.490;2022-11-03T15:53:31;10.00;99.90
12125;DHT22;6126;57.908;16.490;2022-11-03T15:55:57;10.10;99.90
12125;DHT22;6126;57.908;16.490;2022-11-03T15:58:23;10.10;99.90
12125;DHT22;6126;57.908;16.490;2022-11-03T16:00:49;9.90;99.90
12125;DHT22;6126;57.908;16.490;2022-11-03T16:03:14;9.80;99.90
12125;DHT22;6126;57.908;16.490;2022-11-03T16:05:40;9.90;99.90
12125;DHT22;6126;57.908;16.490;2022-11-03T16:08:06;9.60;99.90
12125;DHT22;6126;57.908;16.490;2022-11-03T16:10:32;9.60;99.90
12125;DHT22;6126;57.908;16.490;2022-11-03T16:12:58;9.90;99.90
12125;DHT22;6126;57.908;16.490;2022-11-03T16:15:23;9.80;99.90
12125;DHT22;6126;57.908;16.490;2022-11-03T16:17:49;9.60;99.90
12125;DHT22;6126;57.908;16.490;2022-11-03T16:20:15;9.60;99.90
12125;DHT22;6126;57.908;16.490;2022-11-03T16:22:41;9.70;99.90
12125;DHT22;6126;57.908;16.490;2022-11-03T16:25:07;9.70;99.90
12125;DHT22;6126;57.908;16.490;2022-11-03T16:27:33;9.60;99.90
12125;DHT22;6126;57.908;16.490;2022-11-03T16:29:59;9.70;99.90
12125;DHT22;6126;57.908;16.490;2022-11-03T16:32:25;9.60;99.90
12125;DHT22;6126;57.908;16.490;2022-11-03T16:34:51;9.60;99.90
12125;DHT22;6126;57.908;16.490;2022-11-03T16:37:17;9.40;99.90
12125;DHT22;6126;57.908;16.490;2022-11-03T16:39:42;9.70;99.90
12125;DHT22;6126;57.908;16.490;2022-11-03T16:42:08;9.60;99.90
12125;DHT22;6126;57.908;16.490;2022-11-03T16:44:34;9.70;99.90
12125;DHT22;6126;57.908;16.490;2022-11-03T16:47:00;9.80;99.90
12125;DHT22;6126;57.908;16.490;2022-11-03T16:49:26;9.60;99.90
12125;DHT22;6126;57.908;16.490;2022-11-03T16:51:52;9.60;99.90
12125;DHT22;6126;57.908;16.490;2022-11-03T16:54:18;9.90;99.90
12125;DHT22;6126;57.908;16.490;2022-11-03T16:56:44;9.70;99.90
12125;DHT22;6126;57.908;16.490;2022-11-03T16:59:10;9.60;99.90
12125;DHT22;6126;57.908;16.490;2022-11-03T17:01:35;9.50;99.90
12125;DHT22;6126;57.908;16.490;2022-11-03T17:04:01;9.40;99.90
12125;DHT22;6126;57.908;16.490;2022-11-03T17:06:27;9.70;99.90
12125;DHT22;6126;57.908;16.490;2022-11-03T17:08:53;9.50;99.90
12125;DHT22;6126;57.908;16.490;2022-11-03T17:11:19;9.40;99.90
12125;DHT22;6126;57.908;16.490;2022-11-03T17:14:01;9.70;99.90